sensor_id;sensor_type;location;lat;lon;timestamp;P1;durP1;ratioP1;P2;durP2;ratioP2
42036;SDS011;30340;52.004;5.908;2023-02-13T00:02:07;5.07;;;2.63;;
42036;SDS011;30340;52.004;5.908;2023-02-13T00:04:33;5.68;;;2.50;;
42036;SDS011;30340;52.004;5.908;2023-02-13T00:06:59;6.72;;;2.53;;
42036;SDS011;30340;52.004;5.908;2023-02-13T00:09:24;7.13;;;2.88;;
42036;SDS011;30340;52.004;5.908;2023-02-13T00:11:50;5.78;;;2.47;;
42036;SDS011;30340;52.004;5.908;2023-02-13T00:14:15;6.55;;;2.67;;
42036;SDS011;30340;52.004;5.908;2023-02-13T00:16:41;6.72;;;2.38;;
42036;SDS011;30340;52.004;5.908;2023-02-13T00:19:07;6.05;;;2.60;;
42036;SDS011;30340;52.004;5.908;2023-02-13T00:21:32;6.85;;;2.50;;
42036;SDS011;30340;52.004;5.908;2023-02-13T00:23:58;4.78;;;2.33;;
42036;SDS011;30340;52.004;5.908;2023-02-13T00:26:23;6.50;;;2.65;;
42036;SDS011;30340;52.004;5.908;2023-02-13T00:28:49;5.35;;;2.60;;
42036;SDS011;30340;52.004;5.908;2023-02-13T00:31:19;6.65;;;2.42;;
42036;SDS011;30340;52.004;5.908;2023-02-13T00:33:45;7.60;;;3.25;;
42036;SDS011;30340;52.004;5.908;2023-02-13T00:36:12;6.60;;;2.60;;
42036;SDS011;30340;52.004;5.908;2023-02-13T00:38:40;10.88;;;3.85;;
42036;SDS011;30340;52.004;5.908;2023-02-13T00:41:07;8.13;;;3.60;;
42036;SDS011;30340;52.004;5.908;2023-02-13T00:43:34;7.50;;;3.53;;
42036;SDS011;30340;52.004;5.908;2023-02-13T00:46:00;7.78;;;3.50;;
42036;SDS011;30340;52.004;5.908;2023-02-13T00:48:26;6.60;;;2.60;;
42036;SDS011;30340;52.004;5.908;2023-02-13T00:50:53;6.10;;;2.55;;
42036;SDS011;30340;52.004;5.908;2023-02-13T00:53:19;4.70;;;2.35;;
42036;SDS011;30340;52.004;5.908;2023-02-13T00:55:45;7.03;;;2.83;;
42036;SDS011;30340;52.004;5.908;2023-02-13T00:58:11;6.47;;;2.05;;
42036;SDS011;30340;52.004;5.908;2023-02-13T01:00:37;8.30;;;3.47;;
42036;SDS011;30340;52.004;5.908;2023-02-13T01:03:03;8.10;;;3.72;;
42036;SDS011;30340;52.004;5.908;2023-02-13T01:05:29;8.85;;;3.45;;
42036;SDS011;30340;52.004;5.908;2023-02-13T01:07:54;8.30;;;4.25;;
42036;SDS011;30340;52.004;5.908;2023-02-13T01:10:20;9.20;;;3.83;;
42036;SDS011;30340;52.004;5.908;2023-02-13T01:12:46;5.28;;;2.63;;
42036;SDS011;30340;52.004;5.908;2023-02-13T01:15:11;10.55;;;3.85;;
42036;SDS011;30340;52.004;5.908;2023-02-13T01:17:37;7.07;;;3.15;;
42036;SDS011;30340;52.004;5.908;2023-02-13T01:20:06;7.55;;;2.78;;
42036;SDS011;30340;52.004;5.908;2023-02-13T01:22:33;4.72;;;2.20;;
42036;SDS011;30340;52.004;5.908;2023-02-13T01:24:59;5.38;;;2.33;;
42036;SDS011;30340;52.004;5.908;2023-02-13T01:27:26;7.10;;;2.60;;
42036;SDS011;30340;52.004;5.908;2023-02-13T01:29:52;6.50;;;2.90;;
42036;SDS011;30340;52.004;5.908;2023-02-13T01:32:18;5.88;;;2.50;;
42036;SDS011;30340;52.004;5.908;2023-02-13T01:34:43;6.85;;;2.97;;
42036;SDS011;30340;52.004;5.908;2023-02-13T01:37:09;5.80;;;2.55;;
42036;SDS011;30340;52.004;5.908;2023-02-13T01:39:34;7.95;;;3.25;;
42036;SDS011;30340;52.004;5.908;2023-02-13T01:42:00;7.25;;;2.90;;
42036;SDS011;30340;52.004;5.908;2023-02-13T01:47:41;5.75;;;2.40;;
42036;SDS011;30340;52.004;5.908;2023-02-13T01:50:12;5.63;;;2.38;;
42036;SDS011;30340;52.004;5.908;2023-02-13T01:52:41;8.15;;;2.80;;
42036;SDS011;30340;52.004;5.908;2023-02-13T01:55:12;5.80;;;3.15;;
42036;SDS011;30340;52.004;5.908;2023-02-13T01:57:39;6.10;;;2.53;;
42036;SDS011;30340;52.004;5.908;2023-02-13T02:00:08;5.40;;;2.60;;
42036;SDS011;30340;52.004;5.908;2023-02-13T02:02:37;4.50;;;2.33;;
42036;SDS011;30340;52.004;5.908;2023-02-13T02:05:08;7.47;;;2.90;;
42036;SDS011;30340;52.004;5.908;2023-02-13T02:07:34;4.88;;;2.47;;
42036;SDS011;30340;52.004;5.908;2023-02-13T02:10:03;6.60;;;2.78;;
42036;SDS011;30340;52.004;5.908;2023-02-13T02:12:52;6.03;;;2.95;;
42036;SDS011;30340;52.004;5.908;2023-02-13T02:15:25;8.73;;;4.13;;
42036;SDS011;30340;52.004;5.908;2023-02-13T02:17:52;8.45;;;2.92;;
42036;SDS011;30340;52.004;5.908;2023-02-13T02:21:06;8.93;;;3.88;;
42036;SDS011;30340;52.004;5.908;2023-02-13T02:26:01;7.93;;;3.03;;
42036;SDS011;30340;52.004;5.908;2023-02-13T02:37:53;8.05;;;3.50;;
42036;SDS011;30340;52.004;5.908;2023-02-13T02:46:28;12.38;;;4.30;;
42036;SDS011;30340;52.004;5.908;2023-02-13T02:49:11;5.70;;;2.75;;
42036;SDS011;30340;52.004;5.908;2023-02-13T02:52:02;13.02;;;5.05;;
42036;SDS011;30340;52.004;5.908;2023-02-13T02:54:42;8.98;;;3.60;;
42036;SDS011;30340;52.004;5.908;2023-02-13T02:57:31;10.57;;;4.22;;
42036;SDS011;30340;52.004;5.908;2023-02-13T03:00:19;9.55;;;4.35;;
42036;SDS011;30340;52.004;5.908;2023-02-13T03:03:24;8.93;;;3.80;;
42036;SDS011;30340;52.004;5.908;2023-02-13T03:06:12;8.38;;;3.53;;
42036;SDS011;30340;52.004;5.908;2023-02-13T03:08:45;10.60;;;3.55;;
42036;SDS011;30340;52.004;5.908;2023-02-13T03:11:34;10.88;;;4.35;;
42036;SDS011;30340;52.004;5.908;2023-02-13T03:14:20;10.40;;;4.45;;
42036;SDS011;30340;52.004;5.908;2023-02-13T03:16:49;11.52;;;4.85;;
42036;SDS011;30340;52.004;5.908;2023-02-13T03:19:45;9.25;;;4.20;;
42036;SDS011;30340;52.004;5.908;2023-02-13T03:22:57;12.43;;;4.32;;
42036;SDS011;30340;52.004;5.908;2023-02-13T03:28:39;9.13;;;3.80;;
42036;SDS011;30340;52.004;5.908;2023-02-13T03:31:51;9.02;;;3.78;;
42036;SDS011;30340;52.004;5.908;2023-02-13T03:34:25;7.63;;;3.25;;
42036;SDS011;30340;52.004;5.908;2023-02-13T03:37:17;8.35;;;3.60;;
42036;SDS011;30340;52.004;5.908;2023-02-13T03:43:28;7.50;;;3.08;;
42036;SDS011;30340;52.004;5.908;2023-02-13T03:45:57;8.00;;;2.80;;
42036;SDS011;30340;52.004;5.908;2023-02-13T03:48:27;6.40;;;2.88;;
42036;SDS011;30340;52.004;5.908;2023-02-13T03:51:16;6.80;;;3.05;;
42036;SDS011;30340;52.004;5.908;2023-02-13T03:53:48;8.20;;;3.30;;
42036;SDS011;30340;52.004;5.908;2023-02-13T03:56:18;6.47;;;2.67;;
42036;SDS011;30340;52.004;5.908;2023-02-13T03:59:05;7.63;;;3.22;;
42036;SDS011;30340;52.004;5.908;2023-02-13T04:01:40;8.48;;;3.22;;
42036;SDS011;30340;52.004;5.908;2023-02-13T04:04:20;7.95;;;3.33;;
42036;SDS011;30340;52.004;5.908;2023-02-13T04:07:07;8.90;;;4.05;;
42036;SDS011;30340;52.004;5.908;2023-02-13T04:09:53;10.05;;;4.13;;
42036;SDS011;30340;52.004;5.908;2023-02-13T04:12:23;8.20;;;3.28;;
42036;SDS011;30340;52.004;5.908;2023-02-13T04:14:58;7.40;;;3.38;;
42036;SDS011;30340;52.004;5.908;2023-02-13T04:17:48;4.85;;;2.70;;
42036;SDS011;30340;52.004;5.908;2023-02-13T04:20:19;5.57;;;3.28;;
42036;SDS011;30340;52.004;5.908;2023-02-13T04:22:45;6.60;;;2.95;;
42036;SDS011;30340;52.004;5.908;2023-02-13T04:25:12;7.60;;;2.97;;
42036;SDS011;30340;52.004;5.908;2023-02-13T04:27:39;8.48;;;4.10;;
42036;SDS011;30340;52.004;5.908;2023-02-13T04:30:05;6.80;;;3.25;;
42036;SDS011;30340;52.004;5.908;2023-02-13T04:32:32;9.02;;;4.00;;
42036;SDS011;30340;52.004;5.908;2023-02-13T04:34:57;8.07;;;3.65;;
42036;SDS011;30340;52.004;5.908;2023-02-13T04:37:23;8.13;;;3.50;;
42036;SDS011;30340;52.004;5.908;2023-02-13T04:39:48;7.60;;;2.60;;
42036;SDS011;30340;52.004;5.908;2023-02-13T04:42:14;6.55;;;2.80;;
42036;SDS011;30340;52.004;5.908;2023-02-13T04:44:39;7.03;;;2.97;;
42036;SDS011;30340;52.004;5.908;2023-02-13T04:47:05;9.85;;;4.18;;
42036;SDS011;30340;52.004;5.908;2023-02-13T04:49:30;8.82;;;3.80;;
42036;SDS011;30340;52.004;5.908;2023-02-13T04:51:56;8.10;;;3.47;;
42036;SDS011;30340;52.004;5.908;2023-02-13T04:54:21;7.63;;;3.33;;
42036;SDS011;30340;52.004;5.908;2023-02-13T04:56:47;9.73;;;3.05;;
42036;SDS011;30340;52.004;5.908;2023-02-13T04:59:12;8.18;;;3.53;;
42036;SDS011;30340;52.004;5.908;2023-02-13T05:01:38;9.40;;;4.13;;
42036;SDS011;30340;52.004;5.908;2023-02-13T05:04:04;12.98;;;5.07;;
42036;SDS011;30340;52.004;5.908;2023-02-13T05:06:29;8.50;;;3.78;;
42036;SDS011;30340;52.004;5.908;2023-02-13T05:08:55;8.68;;;3.47;;
42036;SDS011;30340;52.004;5.908;2023-02-13T05:11:20;6.68;;;2.70;;
42036;SDS011;30340;52.004;5.908;2023-02-13T05:13:46;6.30;;;3.10;;
42036;SDS011;30340;52.004;5.908;2023-02-13T05:16:11;9.05;;;4.32;;
42036;SDS011;30340;52.004;5.908;2023-02-13T05:18:37;6.43;;;3.03;;
42036;SDS011;30340;52.004;5.908;2023-02-13T05:21:03;6.53;;;3.25;;
42036;SDS011;30340;52.004;5.908;2023-02-13T05:23:57;6.78;;;3.30;;
42036;SDS011;30340;52.004;5.908;2023-02-13T05:26:23;12.13;;;3.80;;
42036;SDS011;30340;52.004;5.908;2023-02-13T05:28:48;5.93;;;2.88;;
42036;SDS011;30340;52.004;5.908;2023-02-13T05:31:32;8.15;;;3.15;;
42036;SDS011;30340;52.004;5.908;2023-02-13T05:33:58;6.90;;;3.28;;
42036;SDS011;30340;52.004;5.908;2023-02-13T05:36:23;6.13;;;2.80;;
42036;SDS011;30340;52.004;5.908;2023-02-13T05:38:49;7.43;;;3.10;;
42036;SDS011;30340;52.004;5.908;2023-02-13T05:41:14;7.50;;;3.50;;
42036;SDS011;30340;52.004;5.908;2023-02-13T05:43:40;6.00;;;3.00;;
42036;SDS011;30340;52.004;5.908;2023-02-13T05:46:06;6.30;;;3.28;;
42036;SDS011;30340;52.004;5.908;2023-02-13T05:48:33;5.32;;;2.40;;
42036;SDS011;30340;52.004;5.908;2023-02-13T05:50:59;7.68;;;3.00;;
42036;SDS011;30340;52.004;5.908;2023-02-13T05:53:25;6.70;;;3.03;;
42036;SDS011;30340;52.004;5.908;2023-02-13T05:55:50;8.85;;;3.95;;
42036;SDS011;30340;52.004;5.908;2023-02-13T05:58:16;7.68;;;3.38;;
42036;SDS011;30340;52.004;5.908;2023-02-13T06:00:46;8.75;;;3.42;;
42036;SDS011;30340;52.004;5.908;2023-02-13T06:03:12;8.43;;;3.67;;
42036;SDS011;30340;52.004;5.908;2023-02-13T06:05:37;6.57;;;3.30;;
42036;SDS011;30340;52.004;5.908;2023-02-13T06:08:03;4.72;;;2.20;;
42036;SDS011;30340;52.004;5.908;2023-02-13T06:10:28;7.20;;;3.08;;
42036;SDS011;30340;52.004;5.908;2023-02-13T06:12:54;8.60;;;3.92;;
42036;SDS011;30340;52.004;5.908;2023-02-13T06:15:20;7.15;;;3.10;;
42036;SDS011;30340;52.004;5.908;2023-02-13T06:17:45;7.82;;;3.67;;
42036;SDS011;30340;52.004;5.908;2023-02-13T06:20:11;7.57;;;3.40;;
42036;SDS011;30340;52.004;5.908;2023-02-13T06:22:36;8.77;;;3.88;;
42036;SDS011;30340;52.004;5.908;2023-02-13T06:25:02;9.75;;;4.05;;
42036;SDS011;30340;52.004;5.908;2023-02-13T06:27:28;7.20;;;3.20;;
42036;SDS011;30340;52.004;5.908;2023-02-13T06:29:54;8.88;;;3.65;;
42036;SDS011;30340;52.004;5.908;2023-02-13T06:32:19;9.32;;;4.30;;
42036;SDS011;30340;52.004;5.908;2023-02-13T06:34:45;8.45;;;3.67;;
42036;SDS011;30340;52.004;5.908;2023-02-13T06:37:10;9.10;;;3.88;;
42036;SDS011;30340;52.004;5.908;2023-02-13T06:39:36;7.22;;;3.55;;
42036;SDS011;30340;52.004;5.908;2023-02-13T06:42:01;6.13;;;3.15;;
42036;SDS011;30340;52.004;5.908;2023-02-13T06:44:27;7.38;;;3.53;;
42036;SDS011;30340;52.004;5.908;2023-02-13T06:46:52;9.57;;;3.95;;
42036;SDS011;30340;52.004;5.908;2023-02-13T06:49:18;10.30;;;3.75;;
42036;SDS011;30340;52.004;5.908;2023-02-13T06:51:43;8.35;;;3.30;;
42036;SDS011;30340;52.004;5.908;2023-02-13T06:54:09;7.20;;;3.22;;
42036;SDS011;30340;52.004;5.908;2023-02-13T06:56:34;7.30;;;3.47;;
42036;SDS011;30340;52.004;5.908;2023-02-13T06:59:00;7.47;;;3.65;;
42036;SDS011;30340;52.004;5.908;2023-02-13T07:01:26;8.45;;;3.60;;
42036;SDS011;30340;52.004;5.908;2023-02-13T07:03:51;7.28;;;3.10;;
42036;SDS011;30340;52.004;5.908;2023-02-13T07:06:17;6.93;;;2.90;;
42036;SDS011;30340;52.004;5.908;2023-02-13T07:08:43;5.68;;;3.33;;
42036;SDS011;30340;52.004;5.908;2023-02-13T07:11:15;5.88;;;3.15;;
42036;SDS011;30340;52.004;5.908;2023-02-13T07:13:42;8.77;;;4.00;;
42036;SDS011;30340;52.004;5.908;2023-02-13T07:16:08;9.80;;;4.32;;
42036;SDS011;30340;52.004;5.908;2023-02-13T07:18:33;14.57;;;5.13;;
42036;SDS011;30340;52.004;5.908;2023-02-13T07:20:59;10.75;;;4.65;;
42036;SDS011;30340;52.004;5.908;2023-02-13T07:23:24;8.60;;;3.90;;
42036;SDS011;30340;52.004;5.908;2023-02-13T07:25:50;11.02;;;4.70;;
42036;SDS011;30340;52.004;5.908;2023-02-13T07:28:15;13.07;;;4.82;;
42036;SDS011;30340;52.004;5.908;2023-02-13T07:30:41;11.88;;;4.78;;
42036;SDS011;30340;52.004;5.908;2023-02-13T07:33:06;15.57;;;5.63;;
42036;SDS011;30340;52.004;5.908;2023-02-13T07:35:33;14.02;;;5.40;;
42036;SDS011;30340;52.004;5.908;2023-02-13T07:38:00;12.70;;;5.88;;
42036;SDS011;30340;52.004;5.908;2023-02-13T07:40:26;12.52;;;5.57;;
42036;SDS011;30340;52.004;5.908;2023-02-13T07:42:51;9.40;;;4.28;;
42036;SDS011;30340;52.004;5.908;2023-02-13T07:45:17;10.95;;;5.32;;
42036;SDS011;30340;52.004;5.908;2023-02-13T07:47:42;10.32;;;4.55;;
42036;SDS011;30340;52.004;5.908;2023-02-13T07:50:08;13.13;;;5.93;;
42036;SDS011;30340;52.004;5.908;2023-02-13T07:52:34;12.85;;;5.53;;
42036;SDS011;30340;52.004;5.908;2023-02-13T07:55:01;13.30;;;5.25;;
42036;SDS011;30340;52.004;5.908;2023-02-13T07:57:27;16.20;;;6.70;;
42036;SDS011;30340;52.004;5.908;2023-02-13T07:59:55;10.88;;;5.43;;
42036;SDS011;30340;52.004;5.908;2023-02-13T08:02:21;14.43;;;5.18;;
42036;SDS011;30340;52.004;5.908;2023-02-13T08:04:46;10.25;;;4.72;;
42036;SDS011;30340;52.004;5.908;2023-02-13T08:07:12;16.23;;;7.10;;
42036;SDS011;30340;52.004;5.908;2023-02-13T08:09:39;18.52;;;7.03;;
42036;SDS011;30340;52.004;5.908;2023-02-13T08:12:23;10.90;;;4.88;;
42036;SDS011;30340;52.004;5.908;2023-02-13T08:14:49;12.02;;;5.05;;
42036;SDS011;30340;52.004;5.908;2023-02-13T08:17:15;13.02;;;6.13;;
42036;SDS011;30340;52.004;5.908;2023-02-13T08:19:40;9.70;;;3.90;;
42036;SDS011;30340;52.004;5.908;2023-02-13T08:22:06;10.43;;;4.82;;
42036;SDS011;30340;52.004;5.908;2023-02-13T08:24:31;14.35;;;5.57;;
42036;SDS011;30340;52.004;5.908;2023-02-13T08:26:57;13.15;;;5.28;;
42036;SDS011;30340;52.004;5.908;2023-02-13T08:29:23;11.10;;;5.10;;
42036;SDS011;30340;52.004;5.908;2023-02-13T08:31:48;13.85;;;5.75;;
42036;SDS011;30340;52.004;5.908;2023-02-13T08:34:14;10.55;;;4.60;;
42036;SDS011;30340;52.004;5.908;2023-02-13T08:36:39;13.93;;;5.57;;
42036;SDS011;30340;52.004;5.908;2023-02-13T08:39:05;10.25;;;4.72;;
42036;SDS011;30340;52.004;5.908;2023-02-13T08:41:31;14.93;;;6.55;;
42036;SDS011;30340;52.004;5.908;2023-02-13T08:43:56;13.00;;;5.53;;
42036;SDS011;30340;52.004;5.908;2023-02-13T08:46:22;9.98;;;4.70;;
42036;SDS011;30340;52.004;5.908;2023-02-13T08:48:47;11.18;;;5.32;;
42036;SDS011;30340;52.004;5.908;2023-02-13T08:51:13;12.77;;;5.45;;
42036;SDS011;30340;52.004;5.908;2023-02-13T08:53:39;15.07;;;6.38;;
42036;SDS011;30340;52.004;5.908;2023-02-13T08:56:06;11.80;;;5.30;;
42036;SDS011;30340;52.004;5.908;2023-02-13T08:58:32;13.40;;;5.65;;
42036;SDS011;30340;52.004;5.908;2023-02-13T09:00:57;13.65;;;5.63;;
42036;SDS011;30340;52.004;5.908;2023-02-13T09:03:23;10.80;;;4.65;;
42036;SDS011;30340;52.004;5.908;2023-02-13T09:05:49;14.73;;;6.53;;
42036;SDS011;30340;52.004;5.908;2023-02-13T09:08:14;13.90;;;6.28;;
42036;SDS011;30340;52.004;5.908;2023-02-13T09:10:41;17.02;;;6.80;;
42036;SDS011;30340;52.004;5.908;2023-02-13T09:13:10;16.63;;;7.28;;
42036;SDS011;30340;52.004;5.908;2023-02-13T09:15:39;15.45;;;7.05;;
42036;SDS011;30340;52.004;5.908;2023-02-13T09:18:05;12.38;;;6.50;;
42036;SDS011;30340;52.004;5.908;2023-02-13T09:20:31;13.02;;;5.00;;
42036;SDS011;30340;52.004;5.908;2023-02-13T09:22:57;10.63;;;4.80;;
42036;SDS011;30340;52.004;5.908;2023-02-13T09:25:22;15.13;;;6.30;;
42036;SDS011;30340;52.004;5.908;2023-02-13T09:27:48;12.82;;;5.82;;
42036;SDS011;30340;52.004;5.908;2023-02-13T09:30:13;9.75;;;4.72;;
42036;SDS011;30340;52.004;5.908;2023-02-13T09:32:47;13.82;;;5.60;;
42036;SDS011;30340;52.004;5.908;2023-02-13T09:35:14;10.38;;;4.68;;
42036;SDS011;30340;52.004;5.908;2023-02-13T09:37:40;9.27;;;4.55;;
42036;SDS011;30340;52.004;5.908;2023-02-13T09:40:06;14.02;;;6.63;;
42036;SDS011;30340;52.004;5.908;2023-02-13T09:43:00;16.65;;;7.03;;
42036;SDS011;30340;52.004;5.908;2023-02-13T09:45:31;15.35;;;6.00;;
42036;SDS011;30340;52.004;5.908;2023-02-13T09:47:58;13.10;;;5.90;;
42036;SDS011;30340;52.004;5.908;2023-02-13T09:50:25;16.35;;;6.75;;
42036;SDS011;30340;52.004;5.908;2023-02-13T09:52:55;13.68;;;6.32;;
42036;SDS011;30340;52.004;5.908;2023-02-13T10:00:37;13.73;;;6.32;;
42036;SDS011;30340;52.004;5.908;2023-02-13T10:03:18;13.27;;;5.43;;
42036;SDS011;30340;52.004;5.908;2023-02-13T10:08:33;14.07;;;5.65;;
42036;SDS011;30340;52.004;5.908;2023-02-13T10:14:07;10.65;;;5.00;;
42036;SDS011;30340;52.004;5.908;2023-02-13T10:16:40;13.55;;;4.88;;
42036;SDS011;30340;52.004;5.908;2023-02-13T10:19:33;10.68;;;5.10;;
42036;SDS011;30340;52.004;5.908;2023-02-13T10:24:53;14.45;;;6.30;;
42036;SDS011;30340;52.004;5.908;2023-02-13T10:27:22;15.73;;;6.25;;
42036;SDS011;30340;52.004;5.908;2023-02-13T10:29:58;11.25;;;5.40;;
42036;SDS011;30340;52.004;5.908;2023-02-13T10:35:35;13.55;;;6.00;;
42036;SDS011;30340;52.004;5.908;2023-02-13T10:38:11;11.27;;;5.75;;
42036;SDS011;30340;52.004;5.908;2023-02-13T10:40:45;9.00;;;4.47;;
42036;SDS011;30340;52.004;5.908;2023-02-13T10:43:56;10.93;;;4.97;;
42036;SDS011;30340;52.004;5.908;2023-02-13T10:55:13;13.45;;;6.07;;
42036;SDS011;30340;52.004;5.908;2023-02-13T10:57:52;15.07;;;6.07;;
42036;SDS011;30340;52.004;5.908;2023-02-13T11:03:20;15.93;;;6.75;;
42036;SDS011;30340;52.004;5.908;2023-02-13T11:05:50;11.43;;;5.10;;
42036;SDS011;30340;52.004;5.908;2023-02-13T11:08:51;12.43;;;5.43;;
42036;SDS011;30340;52.004;5.908;2023-02-13T11:14:16;10.13;;;4.35;;
42036;SDS011;30340;52.004;5.908;2023-02-13T11:19:23;11.48;;;5.80;;
42036;SDS011;30340;52.004;5.908;2023-02-13T11:21:54;11.25;;;5.30;;
42036;SDS011;30340;52.004;5.908;2023-02-13T11:24:24;9.68;;;4.60;;
42036;SDS011;30340;52.004;5.908;2023-02-13T11:26:52;11.85;;;5.72;;
42036;SDS011;30340;52.004;5.908;2023-02-13T11:29:31;11.35;;;5.03;;
42036;SDS011;30340;52.004;5.908;2023-02-13T11:32:04;10.77;;;5.47;;
42036;SDS011;30340;52.004;5.908;2023-02-13T11:34:32;13.23;;;6.20;;
42036;SDS011;30340;52.004;5.908;2023-02-13T11:37:18;12.40;;;5.88;;
42036;SDS011;30340;52.004;5.908;2023-02-13T11:45:03;8.10;;;4.43;;
42036;SDS011;30340;52.004;5.908;2023-02-13T11:47:39;12.07;;;5.15;;
42036;SDS011;30340;52.004;5.908;2023-02-13T11:50:28;11.23;;;5.10;;
42036;SDS011;30340;52.004;5.908;2023-02-13T11:52:58;10.60;;;4.47;;
42036;SDS011;30340;52.004;5.908;2023-02-13T11:55:43;9.55;;;4.30;;
42036;SDS011;30340;52.004;5.908;2023-02-13T12:00:39;10.43;;;5.25;;
42036;SDS011;30340;52.004;5.908;2023-02-13T12:03:23;10.48;;;4.53;;
42036;SDS011;30340;52.004;5.908;2023-02-13T12:06:01;9.10;;;4.68;;
42036;SDS011;30340;52.004;5.908;2023-02-13T12:08:28;16.52;;;7.97;;
42036;SDS011;30340;52.004;5.908;2023-02-13T12:10:56;14.05;;;5.53;;
42036;SDS011;30340;52.004;5.908;2023-02-13T12:13:34;10.80;;;5.65;;
42036;SDS011;30340;52.004;5.908;2023-02-13T12:16:05;9.25;;;4.47;;
42036;SDS011;30340;52.004;5.908;2023-02-13T12:18:42;13.35;;;6.53;;
42036;SDS011;30340;52.004;5.908;2023-02-13T12:23:58;9.85;;;5.15;;
42036;SDS011;30340;52.004;5.908;2023-02-13T12:26:39;10.68;;;5.50;;
42036;SDS011;30340;52.004;5.908;2023-02-13T12:32:19;13.13;;;6.63;;
42036;SDS011;30340;52.004;5.908;2023-02-13T12:51:02;15.93;;;8.02;;
42036;SDS011;30340;52.004;5.908;2023-02-13T13:01:43;10.35;;;5.45;;
42036;SDS011;30340;52.004;5.908;2023-02-13T13:07:28;12.00;;;5.72;;
42036;SDS011;30340;52.004;5.908;2023-02-13T13:15:42;14.50;;;8.38;;
42036;SDS011;30340;52.004;5.908;2023-02-13T13:27:23;13.82;;;5.72;;
42036;SDS011;30340;52.004;5.908;2023-02-13T13:30:38;11.88;;;6.32;;
42036;SDS011;30340;52.004;5.908;2023-02-13T13:32:49;10.77;;;5.72;;
42036;SDS011;30340;52.004;5.908;2023-02-13T13:35:20;10.75;;;5.15;;
42036;SDS011;30340;52.004;5.908;2023-02-13T13:37:59;10.55;;;5.47;;
42036;SDS011;30340;52.004;5.908;2023-02-13T13:40:45;11.60;;;5.88;;
42036;SDS011;30340;52.004;5.908;2023-02-13T13:46:14;10.73;;;5.20;;
42036;SDS011;30340;52.004;5.908;2023-02-13T13:51:18;11.93;;;6.53;;
42036;SDS011;30340;52.004;5.908;2023-02-13T13:59:24;11.38;;;5.95;;
42036;SDS011;30340;52.004;5.908;2023-02-13T14:04:43;9.25;;;4.88;;
42036;SDS011;30340;52.004;5.908;2023-02-13T14:07:24;12.73;;;5.95;;
42036;SDS011;30340;52.004;5.908;2023-02-13T14:09:49;13.75;;;5.55;;
42036;SDS011;30340;52.004;5.908;2023-02-13T14:12:34;10.05;;;5.07;;
42036;SDS011;30340;52.004;5.908;2023-02-13T14:15:00;9.27;;;4.30;;
42036;SDS011;30340;52.004;5.908;2023-02-13T14:31:50;9.65;;;4.13;;
42036;SDS011;30340;52.004;5.908;2023-02-13T14:36:36;12.90;;;6.63;;
42036;SDS011;30340;52.004;5.908;2023-02-13T14:39:25;11.68;;;6.25;;
42036;SDS011;30340;52.004;5.908;2023-02-13T14:44:33;12.27;;;6.20;;
42036;SDS011;30340;52.004;5.908;2023-02-13T14:47:02;9.95;;;5.13;;
42036;SDS011;30340;52.004;5.908;2023-02-13T14:49:35;12.95;;;5.63;;
42036;SDS011;30340;52.004;5.908;2023-02-13T14:52:05;15.48;;;7.88;;
42036;SDS011;30340;52.004;5.908;2023-02-13T14:54:44;10.55;;;4.70;;
42036;SDS011;30340;52.004;5.908;2023-02-13T14:57:17;9.98;;;5.45;;
42036;SDS011;30340;52.004;5.908;2023-02-13T14:59:52;9.40;;;4.30;;
42036;SDS011;30340;52.004;5.908;2023-02-13T15:02:29;7.80;;;4.10;;
42036;SDS011;30340;52.004;5.908;2023-02-13T15:05:02;10.55;;;5.38;;
42036;SDS011;30340;52.004;5.908;2023-02-13T15:07:32;8.18;;;4.00;;
42036;SDS011;30340;52.004;5.908;2023-02-13T15:10:22;9.63;;;4.68;;
42036;SDS011;30340;52.004;5.908;2023-02-13T15:13:14;9.43;;;4.90;;
42036;SDS011;30340;52.004;5.908;2023-02-13T15:15:49;10.15;;;5.28;;
42036;SDS011;30340;52.004;5.908;2023-02-13T15:18:40;9.45;;;5.13;;
42036;SDS011;30340;52.004;5.908;2023-02-13T15:21:12;10.82;;;5.80;;
42036;SDS011;30340;52.004;5.908;2023-02-13T15:23:40;8.43;;;4.47;;
42036;SDS011;30340;52.004;5.908;2023-02-13T15:26:06;9.93;;;5.05;;
42036;SDS011;30340;52.004;5.908;2023-02-13T15:28:34;8.57;;;3.90;;
42036;SDS011;30340;52.004;5.908;2023-02-13T15:31:01;7.25;;;3.53;;
42036;SDS011;30340;52.004;5.908;2023-02-13T15:33:48;10.95;;;5.10;;
42036;SDS011;30340;52.004;5.908;2023-02-13T15:36:19;9.52;;;4.43;;
42036;SDS011;30340;52.004;5.908;2023-02-13T15:38:55;12.48;;;6.28;;
42036;SDS011;30340;52.004;5.908;2023-02-13T15:41:30;10.25;;;5.72;;
42036;SDS011;30340;52.004;5.908;2023-02-13T15:43:59;12.10;;;5.63;;
42036;SDS011;30340;52.004;5.908;2023-02-13T15:46:26;8.80;;;4.57;;
42036;SDS011;30340;52.004;5.908;2023-02-13T15:49:00;8.38;;;3.88;;
42036;SDS011;30340;52.004;5.908;2023-02-13T15:51:30;9.45;;;4.60;;
42036;SDS011;30340;52.004;5.908;2023-02-13T15:54:19;6.93;;;3.25;;
42036;SDS011;30340;52.004;5.908;2023-02-13T15:56:48;6.78;;;3.60;;
42036;SDS011;30340;52.004;5.908;2023-02-13T15:59:15;8.68;;;4.28;;
42036;SDS011;30340;52.004;5.908;2023-02-13T16:01:42;11.07;;;5.10;;
42036;SDS011;30340;52.004;5.908;2023-02-13T16:04:09;11.15;;;4.93;;
42036;SDS011;30340;52.004;5.908;2023-02-13T16:06:39;10.50;;;5.28;;
42036;SDS011;30340;52.004;5.908;2023-02-13T16:09:19;13.63;;;5.90;;
42036;SDS011;30340;52.004;5.908;2023-02-13T16:14:25;8.32;;;4.20;;
42036;SDS011;30340;52.004;5.908;2023-02-13T16:16:57;9.55;;;4.53;;
42036;SDS011;30340;52.004;5.908;2023-02-13T16:19:38;10.07;;;4.85;;
42036;SDS011;30340;52.004;5.908;2023-02-13T16:24:59;12.13;;;5.43;;
42036;SDS011;30340;52.004;5.908;2023-02-13T16:27:26;8.63;;;4.65;;
42036;SDS011;30340;52.004;5.908;2023-02-13T16:29:53;8.43;;;4.10;;
42036;SDS011;30340;52.004;5.908;2023-02-13T16:32:25;8.82;;;4.00;;
42036;SDS011;30340;52.004;5.908;2023-02-13T16:34:55;7.93;;;3.72;;
42036;SDS011;30340;52.004;5.908;2023-02-13T16:37:47;6.78;;;3.53;;
42036;SDS011;30340;52.004;5.908;2023-02-13T16:40:41;7.88;;;3.25;;
42036;SDS011;30340;52.004;5.908;2023-02-13T16:46:18;7.80;;;3.83;;
42036;SDS011;30340;52.004;5.908;2023-02-13T16:54:29;8.73;;;3.97;;
42036;SDS011;30340;52.004;5.908;2023-02-13T16:57:00;7.40;;;4.35;;
42036;SDS011;30340;52.004;5.908;2023-02-13T17:05:33;6.10;;;3.58;;
42036;SDS011;30340;52.004;5.908;2023-02-13T17:07:42;8.18;;;3.90;;
42036;SDS011;30340;52.004;5.908;2023-02-13T17:13:24;8.33;;;4.23;;
42036;SDS011;30340;52.004;5.908;2023-02-13T17:15:50;7.72;;;4.22;;
42036;SDS011;30340;52.004;5.908;2023-02-13T17:18:16;9.80;;;4.70;;
42036;SDS011;30340;52.004;5.908;2023-02-13T17:20:42;9.73;;;4.50;;
42036;SDS011;30340;52.004;5.908;2023-02-13T17:23:13;11.07;;;5.40;;
42036;SDS011;30340;52.004;5.908;2023-02-13T17:25:41;8.20;;;4.13;;
42036;SDS011;30340;52.004;5.908;2023-02-13T17:28:13;11.48;;;5.35;;
42036;SDS011;30340;52.004;5.908;2023-02-13T17:30:41;9.43;;;4.95;;
42036;SDS011;30340;52.004;5.908;2023-02-13T17:35:35;12.32;;;6.22;;
42036;SDS011;30340;52.004;5.908;2023-02-13T17:38:01;9.40;;;4.93;;
42036;SDS011;30340;52.004;5.908;2023-02-13T17:40:27;7.63;;;3.97;;
42036;SDS011;30340;52.004;5.908;2023-02-13T17:42:55;11.55;;;4.93;;
42036;SDS011;30340;52.004;5.908;2023-02-13T17:45:23;10.73;;;5.50;;
42036;SDS011;30340;52.004;5.908;2023-02-13T17:47:51;11.07;;;4.80;;
42036;SDS011;30340;52.004;5.908;2023-02-13T17:50:17;11.80;;;5.22;;
42036;SDS011;30340;52.004;5.908;2023-02-13T17:52:43;12.90;;;5.60;;
42036;SDS011;30340;52.004;5.908;2023-02-13T17:55:14;14.20;;;7.10;;
42036;SDS011;30340;52.004;5.908;2023-02-13T17:57:46;17.35;;;7.97;;
42036;SDS011;30340;52.004;5.908;2023-02-13T18:00:12;13.70;;;6.90;;
42036;SDS011;30340;52.004;5.908;2023-02-13T18:02:39;13.77;;;6.53;;